sensor_id;sensor_type;location;lat;lon;timestamp;temperature;humidity
21502;DHT22;27639;48.674;9.242;2024-01-30T00:01:12;5.70;55.60
21502;DHT22;27639;48.674;9.242;2024-01-30T00:03:37;5.60;55.50
21502;DHT22;27639;48.674;9.242;2024-01-30T00:06:03;5.70;55.60
21502;DHT22;27639;48.674;9.242;2024-01-30T00:08:29;5.70;55.60
21502;DHT22;27639;48.674;9.242;2024-01-30T00:10:55;5.70;55.60
21502;DHT22;27639;48.674;9.242;2024-01-30T00:13:20;5.60;55.60
21502;DHT22;27639;48.674;9.242;2024-01-30T00:15:46;5.60;55.60
21502;DHT22;27639;48.674;9.242;2024-01-30T00:18:12;5.60;55.70
21502;DHT22;27639;48.674;9.242;2024-01-30T00:20:37;5.50;55.70
21502;DHT22;27639;48.674;9.242;2024-01-30T00:23:03;5.50;55.70
21502;DHT22;27639;48.674;9.242;2024-01-30T00:25:29;5.50;55.70
21502;DHT22;27639;48.674;9.242;2024-01-30T00:27:54;5.50;55.70
21502;DHT22;27639;48.674;9.242;2024-01-30T00:30:20;5.50;55.80
21502;DHT22;27639;48.674;9.242;2024-01-30T00:32:46;5.50;55.80
21502;DHT22;27639;48.674;9.242;2024-01-30T00:35:11;5.50;55.80
21502;DHT22;27639;48.674;9.242;2024-01-30T00:37:37;5.50;55.80
21502;DHT22;27639;48.674;9.242;2024-01-30T00:40:03;5.50;55.90
21502;DHT22;27639;48.674;9.242;2024-01-30T00:42:29;5.50;55.90
21502;DHT22;27639;48.674;9.242;2024-01-30T00:44:54;5.50;55.90
21502;DHT22;27639;48.674;9.242;2024-01-30T00:47:20;5.50;55.90
21502;DHT22;27639;48.674;9.242;2024-01-30T00:49:45;5.40;55.90
21502;DHT22;27639;48.674;9.242;2024-01-30T00:52:11;5.40;55.90
21502;DHT22;27639;48.674;9.242;2024-01-30T00:54:37;5.50;56.10
21502;DHT22;27639;48.674;9.242;2024-01-30T00:57:03;5.50;56.10
21502;DHT22;27639;48.674;9.242;2024-01-30T00:59:28;5.40;56.00
21502;DHT22;27639;48.674;9.242;2024-01-30T01:01:54;5.40;56.10
21502;DHT22;27639;48.674;9.242;2024-01-30T01:04:20;5.50;56.20
21502;DHT22;27639;48.674;9.242;2024-01-30T01:06:47;5.50;56.20
21502;DHT22;27639;48.674;9.242;2024-01-30T01:09:12;5.50;56.20
21502;DHT22;27639;48.674;9.242;2024-01-30T01:11:38;5.50;56.20
21502;DHT22;27639;48.674;9.242;2024-01-30T01:14:04;5.50;56.20
21502;DHT22;27639;48.674;9.242;2024-01-30T01:16:30;5.50;56.20
21502;DHT22;27639;48.674;9.242;2024-01-30T01:18:56;5.50;56.30
21502;DHT22;27639;48.674;9.242;2024-01-30T01:21:21;5.50;56.20
21502;DHT22;27639;48.674;9.242;2024-01-30T01:23:48;5.50;56.20
21502;DHT22;27639;48.674;9.242;2024-01-30T01:26:14;5.50;56.10
21502;DHT22;27639;48.674;9.242;2024-01-30T01:28:41;5.50;56.10
21502;DHT22;27639;48.674;9.242;2024-01-30T01:31:06;5.50;56.00
21502;DHT22;27639;48.674;9.242;2024-01-30T01:33:32;5.40;56.10
21502;DHT22;27639;48.674;9.242;2024-01-30T01:35:59;5.40;56.20
21502;DHT22;27639;48.674;9.242;2024-01-30T01:38:25;5.30;56.90
21502;DHT22;27639;48.674;9.242;2024-01-30T01:40:50;5.30;56.30
21502;DHT22;27639;48.674;9.242;2024-01-30T01:43:16;5.30;56.30
21502;DHT22;27639;48.674;9.242;2024-01-30T01:45:42;5.40;56.50
21502;DHT22;27639;48.674;9.242;2024-01-30T01:48:08;5.40;56.50
21502;DHT22;27639;48.674;9.242;2024-01-30T01:50:34;5.40;56.50
21502;DHT22;27639;48.674;9.242;2024-01-30T01:53:01;5.40;56.50
21502;DHT22;27639;48.674;9.242;2024-01-30T01:55:29;5.40;56.50
21502;DHT22;27639;48.674;9.242;2024-01-30T01:57:56;5.30;56.50
21502;DHT22;27639;48.674;9.242;2024-01-30T02:00:22;5.30;56.60
21502;DHT22;27639;48.674;9.242;2024-01-30T02:02:49;5.40;56.60
21502;DHT22;27639;48.674;9.242;2024-01-30T02:05:16;5.30;56.60
21502;DHT22;27639;48.674;9.242;2024-01-30T02:07:42;5.30;56.70
21502;DHT22;27639;48.674;9.242;2024-01-30T02:10:09;5.20;56.60
21502;DHT22;27639;48.674;9.242;2024-01-30T02:12:37;5.20;56.70
21502;DHT22;27639;48.674;9.242;2024-01-30T02:15:03;5.20;56.70
21502;DHT22;27639;48.674;9.242;2024-01-30T02:17:30;5.30;56.70
21502;DHT22;27639;48.674;9.242;2024-01-30T02:19:56;5.20;56.60
21502;DHT22;27639;48.674;9.242;2024-01-30T02:22:22;5.20;56.60
21502;DHT22;27639;48.674;9.242;2024-01-30T02:24:48;5.20;56.60
21502;DHT22;27639;48.674;9.242;2024-01-30T02:27:14;5.20;56.60
21502;DHT22;27639;48.674;9.242;2024-01-30T02:29:40;5.20;56.60
21502;DHT22;27639;48.674;9.242;2024-01-30T02:32:06;5.20;56.70
21502;DHT22;27639;48.674;9.242;2024-01-30T02:34:33;5.20;56.60
21502;DHT22;27639;48.674;9.242;2024-01-30T02:36:58;5.20;56.60
21502;DHT22;27639;48.674;9.242;2024-01-30T02:39:24;5.20;56.50
21502;DHT22;27639;48.674;9.242;2024-01-30T02:41:49;5.20;56.50
21502;DHT22;27639;48.674;9.242;2024-01-30T02:44:15;5.20;56.60
21502;DHT22;27639;48.674;9.242;2024-01-30T02:46:41;5.20;56.60
21502;DHT22;27639;48.674;9.242;2024-01-30T02:49:06;5.20;56.60
21502;DHT22;27639;48.674;9.242;2024-01-30T02:51:32;5.20;56.60
21502;DHT22;27639;48.674;9.242;2024-01-30T02:53:57;5.20;56.60
21502;DHT22;27639;48.674;9.242;2024-01-30T02:56:23;5.10;56.50
21502;DHT22;27639;48.674;9.242;2024-01-30T02:58:49;5.10;56.60
21502;DHT22;27639;48.674;9.242;2024-01-30T03:01:14;5.10;56.70
21502;DHT22;27639;48.674;9.242;2024-01-30T03:03:40;5.10;56.70
21502;DHT22;27639;48.674;9.242;2024-01-30T03:06:06;5.00;56.60
21502;DHT22;27639;48.674;9.242;2024-01-30T03:08:32;5.00;56.60
21502;DHT22;27639;48.674;9.242;2024-01-30T03:10:58;5.00;56.60
21502;DHT22;27639;48.674;9.242;2024-01-30T03:13:23;5.00;56.70
21502;DHT22;27639;48.674;9.242;2024-01-30T03:15:50;5.00;56.80
21502;DHT22;27639;48.674;9.242;2024-01-30T03:18:16;4.90;56.80
21502;DHT22;27639;48.674;9.242;2024-01-30T03:20:41;4.90;56.80
21502;DHT22;27639;48.674;9.242;2024-01-30T03:23:07;5.00;56.80
21502;DHT22;27639;48.674;9.242;2024-01-30T03:25:32;5.00;56.80
21502;DHT22;27639;48.674;9.242;2024-01-30T03:27:58;4.90;56.70
21502;DHT22;27639;48.674;9.242;2024-01-30T03:30:23;4.90;56.70
21502;DHT22;27639;48.674;9.242;2024-01-30T03:32:49;4.90;56.80
21502;DHT22;27639;48.674;9.242;2024-01-30T03:35:15;4.90;56.90
21502;DHT22;27639;48.674;9.242;2024-01-30T03:37:41;4.80;56.80
21502;DHT22;27639;48.674;9.242;2024-01-30T03:40:07;4.80;56.80
21502;DHT22;27639;48.674;9.242;2024-01-30T03:42:33;4.80;56.80
21502;DHT22;27639;48.674;9.242;2024-01-30T03:44:58;4.80;56.80
21502;DHT22;27639;48.674;9.242;2024-01-30T03:47:24;4.80;56.90
21502;DHT22;27639;48.674;9.242;2024-01-30T03:49:49;4.80;56.90
21502;DHT22;27639;48.674;9.242;2024-01-30T03:52:15;4.80;56.80
21502;DHT22;27639;48.674;9.242;2024-01-30T03:54:41;4.80;56.80
21502;DHT22;27639;48.674;9.242;2024-01-30T03:57:06;4.80;56.90
21502;DHT22;27639;48.674;9.242;2024-01-30T03:59:32;4.80;56.80
21502;DHT22;27639;48.674;9.242;2024-01-30T04:01:57;4.80;56.80
21502;DHT22;27639;48.674;9.242;2024-01-30T04:04:23;4.80;56.90
21502;DHT22;27639;48.674;9.242;2024-01-30T04:06:49;4.70;56.90
21502;DHT22;27639;48.674;9.242;2024-01-30T04:09:14;4.70;57.60
21502;DHT22;27639;48.674;9.242;2024-01-30T04:11:41;4.70;57.00
21502;DHT22;27639;48.674;9.242;2024-01-30T04:14:07;4.70;57.00
21502;DHT22;27639;48.674;9.242;2024-01-30T04:16:33;4.70;57.10
21502;DHT22;27639;48.674;9.242;2024-01-30T04:18:59;4.60;57.00
21502;DHT22;27639;48.674;9.242;2024-01-30T04:21:24;4.60;57.10
21502;DHT22;27639;48.674;9.242;2024-01-30T04:23:51;4.60;57.10
21502;DHT22;27639;48.674;9.242;2024-01-30T04:26:17;4.60;57.10
21502;DHT22;27639;48.674;9.242;2024-01-30T04:28:43;4.60;57.00
21502;DHT22;27639;48.674;9.242;2024-01-30T04:31:09;4.60;57.00
21502;DHT22;27639;48.674;9.242;2024-01-30T04:33:34;4.60;57.10
21502;DHT22;27639;48.674;9.242;2024-01-30T04:36:00;4.60;57.10
21502;DHT22;27639;48.674;9.242;2024-01-30T04:38:25;4.60;57.00
21502;DHT22;27639;48.674;9.242;2024-01-30T04:40:51;4.70;57.00
21502;DHT22;27639;48.674;9.242;2024-01-30T04:43:17;4.70;57.00
21502;DHT22;27639;48.674;9.242;2024-01-30T04:45:42;4.70;56.80
21502;DHT22;27639;48.674;9.242;2024-01-30T04:48:08;4.70;56.80
21502;DHT22;27639;48.674;9.242;2024-01-30T04:50:33;4.70;56.70
21502;DHT22;27639;48.674;9.242;2024-01-30T04:52:59;4.70;56.80
21502;DHT22;27639;48.674;9.242;2024-01-30T04:55:24;4.60;56.80
21502;DHT22;27639;48.674;9.242;2024-01-30T04:57:50;4.60;56.90
21502;DHT22;27639;48.674;9.242;2024-01-30T05:00:16;4.50;57.00
21502;DHT22;27639;48.674;9.242;2024-01-30T05:02:41;4.50;57.00
21502;DHT22;27639;48.674;9.242;2024-01-30T05:05:07;4.50;57.10
21502;DHT22;27639;48.674;9.242;2024-01-30T05:07:33;4.50;57.10
21502;DHT22;27639;48.674;9.242;2024-01-30T05:09:59;4.50;57.20
21502;DHT22;27639;48.674;9.242;2024-01-30T05:12:25;4.50;57.10
21502;DHT22;27639;48.674;9.242;2024-01-30T05:14:51;4.40;57.10
21502;DHT22;27639;48.674;9.242;2024-01-30T05:17:16;4.50;57.20
21502;DHT22;27639;48.674;9.242;2024-01-30T05:19:43;4.40;57.20
21502;DHT22;27639;48.674;9.242;2024-01-30T05:22:09;4.40;57.30
21502;DHT22;27639;48.674;9.242;2024-01-30T05:24:35;4.40;57.40
21502;DHT22;27639;48.674;9.242;2024-01-30T05:27:01;4.40;57.40
21502;DHT22;27639;48.674;9.242;2024-01-30T05:29:27;4.30;57.30
21502;DHT22;27639;48.674;9.242;2024-01-30T05:31:52;4.40;57.40
21502;DHT22;27639;48.674;9.242;2024-01-30T05:34:18;4.40;57.40
21502;DHT22;27639;48.674;9.242;2024-01-30T05:36:43;4.40;57.30
21502;DHT22;27639;48.674;9.242;2024-01-30T05:39:09;4.40;57.20
21502;DHT22;27639;48.674;9.242;2024-01-30T05:41:35;4.40;57.20
21502;DHT22;27639;48.674;9.242;2024-01-30T05:44:01;4.40;57.30
21502;DHT22;27639;48.674;9.242;2024-01-30T05:46:27;4.40;57.20
21502;DHT22;27639;48.674;9.242;2024-01-30T05:48:52;4.40;57.20
21502;DHT22;27639;48.674;9.242;2024-01-30T05:51:18;4.40;57.20
21502;DHT22;27639;48.674;9.242;2024-01-30T05:53:43;4.40;57.30
21502;DHT22;27639;48.674;9.242;2024-01-30T05:56:09;4.30;57.20
21502;DHT22;27639;48.674;9.242;2024-01-30T05:58:35;4.30;57.30
21502;DHT22;27639;48.674;9.242;2024-01-30T06:01:00;4.30;57.40
21502;DHT22;27639;48.674;9.242;2024-01-30T06:03:26;4.30;57.40
21502;DHT22;27639;48.674;9.242;2024-01-30T06:05:51;4.30;57.50
21502;DHT22;27639;48.674;9.242;2024-01-30T06:08:17;4.30;57.40
21502;DHT22;27639;48.674;9.242;2024-01-30T06:10:43;4.30;57.40
21502;DHT22;27639;48.674;9.242;2024-01-30T06:13:09;4.20;57.20
21502;DHT22;27639;48.674;9.242;2024-01-30T06:15:34;4.30;57.40
21502;DHT22;27639;48.674;9.242;2024-01-30T06:18:00;4.30;57.40
21502;DHT22;27639;48.674;9.242;2024-01-30T06:20:25;4.30;57.80
21502;DHT22;27639;48.674;9.242;2024-01-30T06:22:51;4.30;57.40
21502;DHT22;27639;48.674;9.242;2024-01-30T06:25:17;4.30;57.30
21502;DHT22;27639;48.674;9.242;2024-01-30T06:27:43;4.30;57.20
21502;DHT22;27639;48.674;9.242;2024-01-30T06:30:09;4.30;57.10
21502;DHT22;27639;48.674;9.242;2024-01-30T06:32:35;4.30;57.20
21502;DHT22;27639;48.674;9.242;2024-01-30T06:35:01;4.30;57.20
21502;DHT22;27639;48.674;9.242;2024-01-30T06:37:27;4.30;57.30
21502;DHT22;27639;48.674;9.242;2024-01-30T06:39:53;4.30;57.20
21502;DHT22;27639;48.674;9.242;2024-01-30T06:42:18;4.20;57.20
21502;DHT22;27639;48.674;9.242;2024-01-30T06:44:44;4.20;57.20
21502;DHT22;27639;48.674;9.242;2024-01-30T06:47:10;4.30;57.30
21502;DHT22;27639;48.674;9.242;2024-01-30T06:49:36;4.30;57.20
21502;DHT22;27639;48.674;9.242;2024-01-30T06:52:05;4.30;57.20
21502;DHT22;27639;48.674;9.242;2024-01-30T06:54:31;4.30;57.20
21502;DHT22;27639;48.674;9.242;2024-01-30T06:56:58;4.30;57.20
21502;DHT22;27639;48.674;9.242;2024-01-30T06:59:24;4.20;57.00
21502;DHT22;27639;48.674;9.242;2024-01-30T07:01:49;4.30;57.10
21502;DHT22;27639;48.674;9.242;2024-01-30T07:04:15;4.20;57.00
21502;DHT22;27639;48.674;9.242;2024-01-30T07:06:41;4.20;57.20
21502;DHT22;27639;48.674;9.242;2024-01-30T07:09:06;4.20;57.20
21502;DHT22;27639;48.674;9.242;2024-01-30T07:11:32;4.30;57.20
21502;DHT22;27639;48.674;9.242;2024-01-30T07:13:58;4.30;57.20
21502;DHT22;27639;48.674;9.242;2024-01-30T07:16:23;4.20;57.10
21502;DHT22;27639;48.674;9.242;2024-01-30T07:18:49;4.20;57.30
21502;DHT22;27639;48.674;9.242;2024-01-30T07:21:15;4.30;57.50
21502;DHT22;27639;48.674;9.242;2024-01-30T07:23:41;4.30;57.50
21502;DHT22;27639;48.674;9.242;2024-01-30T07:26:08;4.30;57.50
21502;DHT22;27639;48.674;9.242;2024-01-30T07:28:34;4.30;57.50
21502;DHT22;27639;48.674;9.242;2024-01-30T07:31:00;4.30;57.60
21502;DHT22;27639;48.674;9.242;2024-01-30T07:33:25;4.30;57.50
21502;DHT22;27639;48.674;9.242;2024-01-30T07:35:52;4.30;57.50
21502;DHT22;27639;48.674;9.242;2024-01-30T07:38:18;4.30;57.50
21502;DHT22;27639;48.674;9.242;2024-01-30T07:40:44;4.40;57.70
21502;DHT22;27639;48.674;9.242;2024-01-30T07:43:10;4.40;57.70
21502;DHT22;27639;48.674;9.242;2024-01-30T07:45:35;4.40;57.80
21502;DHT22;27639;48.674;9.242;2024-01-30T07:48:02;4.40;57.80
21502;DHT22;27639;48.674;9.242;2024-01-30T07:50:28;4.50;57.80
21502;DHT22;27639;48.674;9.242;2024-01-30T07:52:56;4.60;57.90
21502;DHT22;27639;48.674;9.242;2024-01-30T07:55:22;4.60;57.80
21502;DHT22;27639;48.674;9.242;2024-01-30T07:57:54;4.70;57.80
21502;DHT22;27639;48.674;9.242;2024-01-30T08:00:21;4.70;57.80
21502;DHT22;27639;48.674;9.242;2024-01-30T08:02:47;4.70;57.80
21502;DHT22;27639;48.674;9.242;2024-01-30T08:05:13;4.70;57.80
21502;DHT22;27639;48.674;9.242;2024-01-30T08:07:40;4.80;57.90
21502;DHT22;27639;48.674;9.242;2024-01-30T08:10:07;4.80;57.90
21502;DHT22;27639;48.674;9.242;2024-01-30T08:12:33;4.90;58.00
21502;DHT22;27639;48.674;9.242;2024-01-30T08:14:58;4.90;58.10
21502;DHT22;27639;48.674;9.242;2024-01-30T08:17:24;4.90;58.00
21502;DHT22;27639;48.674;9.242;2024-01-30T08:19:49;4.90;58.00
21502;DHT22;27639;48.674;9.242;2024-01-30T08:22:15;5.00;58.10
21502;DHT22;27639;48.674;9.242;2024-01-30T08:24:41;5.00;58.10
21502;DHT22;27639;48.674;9.242;2024-01-30T08:27:07;5.10;58.10
21502;DHT22;27639;48.674;9.242;2024-01-30T08:29:35;5.10;58.10
21502;DHT22;27639;48.674;9.242;2024-01-30T08:32:01;5.20;58.20
21502;DHT22;27639;48.674;9.242;2024-01-30T08:34:26;5.30;58.30
21502;DHT22;27639;48.674;9.242;2024-01-30T08:36:52;5.30;58.30
21502;DHT22;27639;48.674;9.242;2024-01-30T08:39:18;5.50;58.50
21502;DHT22;27639;48.674;9.242;2024-01-30T08:41:44;5.50;58.40
21502;DHT22;27639;48.674;9.242;2024-01-30T08:44:10;5.60;58.40
21502;DHT22;27639;48.674;9.242;2024-01-30T08:46:36;5.70;58.40
21502;DHT22;27639;48.674;9.242;2024-01-30T08:49:02;5.80;58.40
21502;DHT22;27639;48.674;9.242;2024-01-30T08:51:29;5.90;58.30
21502;DHT22;27639;48.674;9.242;2024-01-30T08:53:55;6.00;58.20
21502;DHT22;27639;48.674;9.242;2024-01-30T08:56:20;6.10;58.70
21502;DHT22;27639;48.674;9.242;2024-01-30T08:58:46;6.20;58.00
21502;DHT22;27639;48.674;9.242;2024-01-30T09:01:11;6.20;58.00
21502;DHT22;27639;48.674;9.242;2024-01-30T09:03:37;6.30;57.90
21502;DHT22;27639;48.674;9.242;2024-01-30T09:06:08;6.40;58.00
21502;DHT22;27639;48.674;9.242;2024-01-30T09:08:34;6.50;58.10
21502;DHT22;27639;48.674;9.242;2024-01-30T09:11:00;6.50;57.90
21502;DHT22;27639;48.674;9.242;2024-01-30T09:13:25;6.50;57.90
21502;DHT22;27639;48.674;9.242;2024-01-30T09:15:51;6.70;57.90
21502;DHT22;27639;48.674;9.242;2024-01-30T09:18:16;6.70;57.70
21502;DHT22;27639;48.674;9.242;2024-01-30T09:20:42;6.80;57.70
21502;DHT22;27639;48.674;9.242;2024-01-30T09:23:07;6.80;57.70
21502;DHT22;27639;48.674;9.242;2024-01-30T09:25:33;6.90;57.60
21502;DHT22;27639;48.674;9.242;2024-01-30T09:27:59;7.00;57.50
21502;DHT22;27639;48.674;9.242;2024-01-30T09:30:25;7.10;57.50
21502;DHT22;27639;48.674;9.242;2024-01-30T09:32:51;7.10;57.40
21502;DHT22;27639;48.674;9.242;2024-01-30T09:35:16;7.10;57.40
21502;DHT22;27639;48.674;9.242;2024-01-30T09:37:42;7.20;57.40
21502;DHT22;27639;48.674;9.242;2024-01-30T09:40:08;7.20;57.40
21502;DHT22;27639;48.674;9.242;2024-01-30T09:42:35;7.20;57.30
21502;DHT22;27639;48.674;9.242;2024-01-30T09:45:04;7.20;57.20
21502;DHT22;27639;48.674;9.242;2024-01-30T09:47:40;7.30;57.20
21502;DHT22;27639;48.674;9.242;2024-01-30T09:50:10;7.40;57.20
21502;DHT22;27639;48.674;9.242;2024-01-30T09:52:36;7.40;57.10
21502;DHT22;27639;48.674;9.242;2024-01-30T09:55:03;7.50;57.10
21502;DHT22;27639;48.674;9.242;2024-01-30T09:57:29;7.60;57.00
21502;DHT22;27639;48.674;9.242;2024-01-30T09:59:54;7.70;57.00
21502;DHT22;27639;48.674;9.242;2024-01-30T10:02:21;7.70;56.60
21502;DHT22;27639;48.674;9.242;2024-01-30T10:04:51;7.70;56.60
21502;DHT22;27639;48.674;9.242;2024-01-30T10:07:20;7.70;56.60
21502;DHT22;27639;48.674;9.242;2024-01-30T10:09:46;7.80;56.60
21502;DHT22;27639;48.674;9.242;2024-01-30T10:12:12;7.80;56.70
21502;DHT22;27639;48.674;9.242;2024-01-30T10:14:42;7.80;57.30
21502;DHT22;27639;48.674;9.242;2024-01-30T10:17:08;7.90;56.70
21502;DHT22;27639;48.674;9.242;2024-01-30T10:19:35;7.90;56.70
21502;DHT22;27639;48.674;9.242;2024-01-30T10:22:01;8.00;56.80
21502;DHT22;27639;48.674;9.242;2024-01-30T10:24:26;8.00;56.90
21502;DHT22;27639;48.674;9.242;2024-01-30T10:26:53;8.20;57.60
21502;DHT22;27639;48.674;9.242;2024-01-30T10:29:19;8.30;56.70
21502;DHT22;27639;48.674;9.242;2024-01-30T10:31:44;8.30;56.60
21502;DHT22;27639;48.674;9.242;2024-01-30T10:34:10;8.40;56.80
21502;DHT22;27639;48.674;9.242;2024-01-30T10:36:43;8.60;56.70
21502;DHT22;27639;48.674;9.242;2024-01-30T10:39:13;8.70;56.30
21502;DHT22;27639;48.674;9.242;2024-01-30T10:41:44;8.80;56.00
21502;DHT22;27639;48.674;9.242;2024-01-30T10:44:10;8.90;56.00
21502;DHT22;27639;48.674;9.242;2024-01-30T10:46:41;8.90;56.00
21502;DHT22;27639;48.674;9.242;2024-01-30T10:49:08;8.90;55.90
21502;DHT22;27639;48.674;9.242;2024-01-30T10:51:34;9.00;56.00
21502;DHT22;27639;48.674;9.242;2024-01-30T10:54:01;9.00;55.90
21502;DHT22;27639;48.674;9.242;2024-01-30T10:56:29;9.10;55.90
21502;DHT22;27639;48.674;9.242;2024-01-30T10:58:56;9.20;55.80
21502;DHT22;27639;48.674;9.242;2024-01-30T11:01:23;9.30;55.60
21502;DHT22;27639;48.674;9.242;2024-01-30T11:03:52;9.40;55.50
21502;DHT22;27639;48.674;9.242;2024-01-30T11:06:18;9.40;55.30
21502;DHT22;27639;48.674;9.242;2024-01-30T11:09:00;9.40;55.40
21502;DHT22;27639;48.674;9.242;2024-01-30T11:11:27;9.50;55.50
21502;DHT22;27639;48.674;9.242;2024-01-30T11:13:53;9.50;55.60
21502;DHT22;27639;48.674;9.242;2024-01-30T11:16:20;9.50;56.20
21502;DHT22;27639;48.674;9.242;2024-01-30T11:18:50;9.50;55.30
21502;DHT22;27639;48.674;9.242;2024-01-30T11:21:16;9.50;55.30
21502;DHT22;27639;48.674;9.242;2024-01-30T11:23:42;9.60;55.30
21502;DHT22;27639;48.674;9.242;2024-01-30T11:26:10;9.60;55.20
21502;DHT22;27639;48.674;9.242;2024-01-30T11:28:37;9.60;55.00
21502;DHT22;27639;48.674;9.242;2024-01-30T11:31:05;9.70;55.20
21502;DHT22;27639;48.674;9.242;2024-01-30T11:33:30;9.70;55.00
21502;DHT22;27639;48.674;9.242;2024-01-30T11:36:00;9.80;55.00
21502;DHT22;27639;48.674;9.242;2024-01-30T11:38:27;9.90;54.80
21502;DHT22;27639;48.674;9.242;2024-01-30T11:40:54;10.00;53.80
21502;DHT22;27639;48.674;9.242;2024-01-30T11:43:22;10.00;53.80
21502;DHT22;27639;48.674;9.242;2024-01-30T11:45:47;10.00;54.10
21502;DHT22;27639;48.674;9.242;2024-01-30T11:48:13;10.10;54.10
21502;DHT22;27639;48.674;9.242;2024-01-30T11:50:39;10.20;54.30
21502;DHT22;27639;48.674;9.242;2024-01-30T11:53:06;10.30;54.30
21502;DHT22;27639;48.674;9.242;2024-01-30T11:55:32;10.40;54.20
21502;DHT22;27639;48.674;9.242;2024-01-30T11:57:58;10.50;54.30
21502;DHT22;27639;48.674;9.242;2024-01-30T12:00:24;10.50;54.10
21502;DHT22;27639;48.674;9.242;2024-01-30T12:02:54;10.60;54.00
21502;DHT22;27639;48.674;9.242;2024-01-30T12:05:24;10.70;53.90
21502;DHT22;27639;48.674;9.242;2024-01-30T12:07:50;10.80;53.90
21502;DHT22;27639;48.674;9.242;2024-01-30T12:10:16;10.80;53.80
21502;DHT22;27639;48.674;9.242;2024-01-30T12:12:43;10.80;53.70
21502;DHT22;27639;48.674;9.242;2024-01-30T12:15:10;10.90;53.70
21502;DHT22;27639;48.674;9.242;2024-01-30T12:17:35;11.00;53.80
21502;DHT22;27639;48.674;9.242;2024-01-30T12:20:05;11.10;53.70
21502;DHT22;27639;48.674;9.242;2024-01-30T12:22:33;11.20;53.60
21502;DHT22;27639;48.674;9.242;2024-01-30T12:25:01;11.30;53.60
21502;DHT22;27639;48.674;9.242;2024-01-30T12:27:27;11.40;53.30
21502;DHT22;27639;48.674;9.242;2024-01-30T12:29:59;11.40;53.20
21502;DHT22;27639;48.674;9.242;2024-01-30T12:32:25;11.50;53.80
21502;DHT22;27639;48.674;9.242;2024-01-30T12:34:54;11.60;53.20
21502;DHT22;27639;48.674;9.242;2024-01-30T12:37:20;11.70;53.10
21502;DHT22;27639;48.674;9.242;2024-01-30T12:39:48;11.80;53.10
21502;DHT22;27639;48.674;9.242;2024-01-30T12:42:14;11.80;52.90
21502;DHT22;27639;48.674;9.242;2024-01-30T12:44:40;11.80;52.90
21502;DHT22;27639;48.674;9.242;2024-01-30T12:47:08;11.90;52.90
21502;DHT22;27639;48.674;9.242;2024-01-30T12:49:34;11.90;52.90
21502;DHT22;27639;48.674;9.242;2024-01-30T12:52:00;11.90;52.90
21502;DHT22;27639;48.674;9.242;2024-01-30T12:54:25;12.00;53.10
21502;DHT22;27639;48.674;9.242;2024-01-30T12:56:51;12.10;53.10
21502;DHT22;27639;48.674;9.242;2024-01-30T12:59:16;12.10;53.10
21502;DHT22;27639;48.674;9.242;2024-01-30T13:01:42;12.20;53.20
21502;DHT22;27639;48.674;9.242;2024-01-30T13:04:07;12.30;53.10
21502;DHT22;27639;48.674;9.242;2024-01-30T13:06:33;12.30;53.00
21502;DHT22;27639;48.674;9.242;2024-01-30T13:08:58;12.40;53.00
21502;DHT22;27639;48.674;9.242;2024-01-30T13:11:24;12.50;53.00
21502;DHT22;27639;48.674;9.242;2024-01-30T13:13:51;12.60;53.00
21502;DHT22;27639;48.674;9.242;2024-01-30T13:16:17;12.80;52.70
21502;DHT22;27639;48.674;9.242;2024-01-30T13:18:44;12.90;52.60
21502;DHT22;27639;48.674;9.242;2024-01-30T13:21:09;13.00;52.70
21502;DHT22;27639;48.674;9.242;2024-01-30T13:23:35;13.10;52.70
21502;DHT22;27639;48.674;9.242;2024-01-30T13:26:00;13.20;52.70
21502;DHT22;27639;48.674;9.242;2024-01-30T13:28:26;13.30;52.50
21502;DHT22;27639;48.674;9.242;2024-01-30T13:30:52;13.30;52.40
21502;DHT22;27639;48.674;9.242;2024-01-30T13:33:17;13.30;52.90
21502;DHT22;27639;48.674;9.242;2024-01-30T13:35:43;13.30;52.30
21502;DHT22;27639;48.674;9.242;2024-01-30T13:38:09;13.20;52.60
21502;DHT22;27639;48.674;9.242;2024-01-30T13:40:34;13.20;52.80
21502;DHT22;27639;48.674;9.242;2024-01-30T13:43:00;13.20;52.80
21502;DHT22;27639;48.674;9.242;2024-01-30T13:45:25;13.20;52.80
21502;DHT22;27639;48.674;9.242;2024-01-30T13:47:51;13.20;52.80
21502;DHT22;27639;48.674;9.242;2024-01-30T13:50:17;13.30;52.90
21502;DHT22;27639;48.674;9.242;2024-01-30T13:52:43;13.40;53.00
21502;DHT22;27639;48.674;9.242;2024-01-30T13:55:09;13.30;52.90
21502;DHT22;27639;48.674;9.242;2024-01-30T13:57:36;13.30;52.90
21502;DHT22;27639;48.674;9.242;2024-01-30T14:00:03;13.40;53.00
21502;DHT22;27639;48.674;9.242;2024-01-30T14:02:30;13.50;53.00
21502;DHT22;27639;48.674;9.242;2024-01-30T14:04:56;13.60;53.20
21502;DHT22;27639;48.674;9.242;2024-01-30T14:07:22;13.60;53.10
21502;DHT22;27639;48.674;9.242;2024-01-30T14:09:48;13.60;53.20
21502;DHT22;27639;48.674;9.242;2024-01-30T14:12:14;13.60;53.10
21502;DHT22;27639;48.674;9.242;2024-01-30T14:14:40;13.70;53.30
21502;DHT22;27639;48.674;9.242;2024-01-30T14:17:06;13.70;53.20
21502;DHT22;27639;48.674;9.242;2024-01-30T14:19:35;13.60;53.20
21502;DHT22;27639;48.674;9.242;2024-01-30T14:22:02;13.70;53.30
21502;DHT22;27639;48.674;9.242;2024-01-30T14:24:27;13.70;53.20
21502;DHT22;27639;48.674;9.242;2024-01-30T14:26:53;13.70;53.20
21502;DHT22;27639;48.674;9.242;2024-01-30T14:29:18;13.70;53.10
21502;DHT22;27639;48.674;9.242;2024-01-30T14:31:44;13.60;53.20
21502;DHT22;27639;48.674;9.242;2024-01-30T14:34:10;13.60;53.20
21502;DHT22;27639;48.674;9.242;2024-01-30T14:36:37;13.70;53.20
21502;DHT22;27639;48.674;9.242;2024-01-30T14:39:03;13.70;53.30
21502;DHT22;27639;48.674;9.242;2024-01-30T14:41:29;13.80;53.30
21502;DHT22;27639;48.674;9.242;2024-01-30T14:43:54;13.80;53.30
21502;DHT22;27639;48.674;9.242;2024-01-30T14:46:21;13.90;53.40
21502;DHT22;27639;48.674;9.242;2024-01-30T14:48:47;13.90;53.40
21502;DHT22;27639;48.674;9.242;2024-01-30T14:51:12;13.90;53.40
21502;DHT22;27639;48.674;9.242;2024-01-30T14:53:39;13.90;54.00
21502;DHT22;27639;48.674;9.242;2024-01-30T14:56:05;13.90;53.40
21502;DHT22;27639;48.674;9.242;2024-01-30T14:58:30;14.00;53.40
21502;DHT22;27639;48.674;9.242;2024-01-30T15:00:56;14.00;53.60
21502;DHT22;27639;48.674;9.242;2024-01-30T15:03:22;14.00;53.50
21502;DHT22;27639;48.674;9.242;2024-01-30T15:05:47;14.00;53.50
21502;DHT22;27639;48.674;9.242;2024-01-30T15:08:13;14.10;53.50
21502;DHT22;27639;48.674;9.242;2024-01-30T15:10:38;14.00;53.40
21502;DHT22;27639;48.674;9.242;2024-01-30T15:13:04;14.00;53.40
21502;DHT22;27639;48.674;9.242;2024-01-30T15:15:30;14.00;53.40
21502;DHT22;27639;48.674;9.242;2024-01-30T15:17:56;14.00;53.40
21502;DHT22;27639;48.674;9.242;2024-01-30T15:20:22;14.00;53.40
21502;DHT22;27639;48.674;9.242;2024-01-30T15:22:47;14.00;53.40
21502;DHT22;27639;48.674;9.242;2024-01-30T15:25:13;14.00;53.40
21502;DHT22;27639;48.674;9.242;2024-01-30T15:27:39;13.90;53.40
21502;DHT22;27639;48.674;9.242;2024-01-30T15:30:06;13.90;53.40
21502;DHT22;27639;48.674;9.242;2024-01-30T15:32:32;13.90;53.40
21502;DHT22;27639;48.674;9.242;2024-01-30T15:34:57;13.80;53.30